sensor_id;sensor_type;location;lat;lon;timestamp;pressure;altitude;pressure_sealevel;temperature;humidity
20987;BME280;10652;50.306;8.570;2023-12-29T00:00:08;97732.69;;;7.01;100.00
20987;BME280;10652;50.306;8.570;2023-12-29T00:04:12;97721.16;;;7.06;100.00
20987;BME280;10652;50.306;8.570;2023-12-29T00:08:14;97736.69;;;7.09;100.00
20987;BME280;10652;50.306;8.570;2023-12-29T00:12:16;97725.41;;;7.09;100.00
20987;BME280;10652;50.306;8.570;2023-12-29T00:16:18;97719.28;;;7.10;100.00
20987;BME280;10652;50.306;8.570;2023-12-29T00:20:20;97713.28;;;7.08;100.00
20987;BME280;10652;50.306;8.570;2023-12-29T00:24:38;97700.31;;;7.05;100.00
20987;BME280;10652;50.306;8.570;2023-12-29T00:28:41;97692.66;;;7.00;100.00
20987;BME280;10652;50.306;8.570;2023-12-29T00:32:43;97694.50;;;6.98;100.00
20987;BME280;10652;50.306;8.570;2023-12-29T00:36:46;97701.59;;;6.95;100.00
20987;BME280;10652;50.306;8.570;2023-12-29T00:40:49;97692.81;;;6.96;100.00
20987;BME280;10652;50.306;8.570;2023-12-29T00:44:51;97694.41;;;7.00;100.00
20987;BME280;10652;50.306;8.570;2023-12-29T00:48:53;97688.06;;;7.07;100.00
20987;BME280;10652;50.306;8.570;2023-12-29T00:52:55;97681.94;;;7.08;100.00
20987;BME280;10652;50.306;8.570;2023-12-29T00:56:57;97667.16;;;7.07;100.00
20987;BME280;10652;50.306;8.570;2023-12-29T01:01:00;97671.59;;;7.05;100.00
20987;BME280;10652;50.306;8.570;2023-12-29T01:05:02;97673.34;;;7.04;100.00
20987;BME280;10652;50.306;8.570;2023-12-29T01:09:06;97687.16;;;7.08;100.00
20987;BME280;10652;50.306;8.570;2023-12-29T01:13:10;97683.59;;;7.09;100.00
20987;BME280;10652;50.306;8.570;2023-12-29T01:17:13;97688.72;;;7.12;100.00
20987;BME280;10652;50.306;8.570;2023-12-29T01:21:15;97683.25;;;7.18;100.00
20987;BME280;10652;50.306;8.570;2023-12-29T01:25:17;97691.00;;;7.21;100.00
20987;BME280;10652;50.306;8.570;2023-12-29T01:29:19;97675.31;;;7.21;100.00
20987;BME280;10652;50.306;8.570;2023-12-29T01:33:21;97672.56;;;7.24;100.00
20987;BME280;10652;50.306;8.570;2023-12-29T01:37:25;97679.44;;;7.26;99.41
20987;BME280;10652;50.306;8.570;2023-12-29T01:41:27;97670.63;;;7.29;98.30
20987;BME280;10652;50.306;8.570;2023-12-29T01:45:29;97671.66;;;7.25;97.83
20987;BME280;10652;50.306;8.570;2023-12-29T01:49:33;97664.53;;;7.28;97.88
20987;BME280;10652;50.306;8.570;2023-12-29T01:53:36;97654.09;;;7.28;97.93
20987;BME280;10652;50.306;8.570;2023-12-29T01:57:49;97662.91;;;7.26;97.79
20987;BME280;10652;50.306;8.570;2023-12-29T02:01:53;97651.66;;;7.24;97.82
20987;BME280;10652;50.306;8.570;2023-12-29T02:05:57;97654.41;;;7.21;97.88
20987;BME280;10652;50.306;8.570;2023-12-29T02:10:00;97645.72;;;7.20;98.09
20987;BME280;10652;50.306;8.570;2023-12-29T02:14:03;97651.81;;;7.21;98.19
20987;BME280;10652;50.306;8.570;2023-12-29T02:18:06;97648.34;;;7.20;98.54
20987;BME280;10652;50.306;8.570;2023-12-29T02:22:10;97644.06;;;7.18;98.27
20987;BME280;10652;50.306;8.570;2023-12-29T02:26:15;97645.97;;;7.14;98.03
20987;BME280;10652;50.306;8.570;2023-12-29T02:34:38;97646.09;;;7.11;97.71
20987;BME280;10652;50.306;8.570;2023-12-29T02:38:43;97659.34;;;7.07;96.54
20987;BME280;10652;50.306;8.570;2023-12-29T02:42:48;97654.09;;;7.07;96.48
20987;BME280;10652;50.306;8.570;2023-12-29T02:46:51;97651.53;;;7.05;96.59
20987;BME280;10652;50.306;8.570;2023-12-29T02:50:53;97649.97;;;7.01;96.54
20987;BME280;10652;50.306;8.570;2023-12-29T02:54:55;97651.69;;;7.02;96.90
20987;BME280;10652;50.306;8.570;2023-12-29T02:58:57;97647.19;;;7.06;96.37
20987;BME280;10652;50.306;8.570;2023-12-29T03:02:59;97641.81;;;7.09;95.98
20987;BME280;10652;50.306;8.570;2023-12-29T03:07:01;97647.00;;;7.10;95.41
20987;BME280;10652;50.306;8.570;2023-12-29T03:11:04;97646.22;;;7.08;95.33
20987;BME280;10652;50.306;8.570;2023-12-29T03:15:06;97639.28;;;7.07;95.59
20987;BME280;10652;50.306;8.570;2023-12-29T03:19:08;97628.00;;;7.07;95.50
20987;BME280;10652;50.306;8.570;2023-12-29T03:23:10;97615.84;;;7.06;95.83
20987;BME280;10652;50.306;8.570;2023-12-29T03:27:12;97617.69;;;7.04;95.37
20987;BME280;10652;50.306;8.570;2023-12-29T03:31:14;97602.25;;;6.98;95.15
20987;BME280;10652;50.306;8.570;2023-12-29T03:35:16;97587.66;;;6.92;95.09
20987;BME280;10652;50.306;8.570;2023-12-29T03:39:19;97599.31;;;6.83;95.63
20987;BME280;10652;50.306;8.570;2023-12-29T03:43:21;97584.91;;;6.73;95.78
20987;BME280;10652;50.306;8.570;2023-12-29T03:47:23;97579.03;;;6.68;96.29
20987;BME280;10652;50.306;8.570;2023-12-29T03:51:25;97580.88;;;6.66;96.59
20987;BME280;10652;50.306;8.570;2023-12-29T03:55:27;97577.34;;;6.67;96.80
20987;BME280;10652;50.306;8.570;2023-12-29T03:59:30;97595.44;;;6.72;96.68
20987;BME280;10652;50.306;8.570;2023-12-29T04:03:32;97603.19;;;6.73;96.59
20987;BME280;10652;50.306;8.570;2023-12-29T04:07:35;97581.59;;;6.70;96.30
20987;BME280;10652;50.306;8.570;2023-12-29T04:11:37;97565.81;;;6.73;96.70
20987;BME280;10652;50.306;8.570;2023-12-29T04:15:39;97581.47;;;6.73;96.41
20987;BME280;10652;50.306;8.570;2023-12-29T04:19:41;97590.22;;;6.72;96.14
20987;BME280;10652;50.306;8.570;2023-12-29T04:23:44;97583.16;;;6.74;96.27
20987;BME280;10652;50.306;8.570;2023-12-29T04:27:46;97581.91;;;6.84;94.93
20987;BME280;10652;50.306;8.570;2023-12-29T04:31:48;97588.47;;;6.94;94.38
20987;BME280;10652;50.306;8.570;2023-12-29T04:35:51;97580.38;;;7.00;93.11
20987;BME280;10652;50.306;8.570;2023-12-29T04:39:53;97572.47;;;7.02;92.22
20987;BME280;10652;50.306;8.570;2023-12-29T04:43:55;97572.34;;;7.05;92.01
20987;BME280;10652;50.306;8.570;2023-12-29T04:47:57;97555.72;;;7.07;91.08
20987;BME280;10652;50.306;8.570;2023-12-29T04:51:59;97560.09;;;7.07;90.87
20987;BME280;10652;50.306;8.570;2023-12-29T04:56:02;97556.56;;;7.08;90.69
20987;BME280;10652;50.306;8.570;2023-12-29T05:00:04;97549.88;;;7.01;90.66
20987;BME280;10652;50.306;8.570;2023-12-29T05:04:07;97555.38;;;6.95;90.59
20987;BME280;10652;50.306;8.570;2023-12-29T05:08:09;97548.09;;;6.81;91.20
20987;BME280;10652;50.306;8.570;2023-12-29T05:12:11;97567.50;;;6.74;91.68
20987;BME280;10652;50.306;8.570;2023-12-29T05:16:13;97564.22;;;6.69;91.99
20987;BME280;10652;50.306;8.570;2023-12-29T05:20:15;97541.78;;;6.65;92.52
20987;BME280;10652;50.306;8.570;2023-12-29T05:24:17;97554.75;;;6.66;92.72
20987;BME280;10652;50.306;8.570;2023-12-29T05:28:19;97557.25;;;6.69;93.06
20987;BME280;10652;50.306;8.570;2023-12-29T05:32:22;97555.25;;;6.76;92.82
20987;BME280;10652;50.306;8.570;2023-12-29T05:36:24;97556.84;;;6.80;92.35
20987;BME280;10652;50.306;8.570;2023-12-29T05:40:26;97555.19;;;6.77;92.03
20987;BME280;10652;50.306;8.570;2023-12-29T05:44:28;97556.88;;;6.78;92.20
20987;BME280;10652;50.306;8.570;2023-12-29T05:48:30;97554.41;;;6.75;91.99
20987;BME280;10652;50.306;8.570;2023-12-29T05:52:32;97562.97;;;6.79;92.00
20987;BME280;10652;50.306;8.570;2023-12-29T05:56:35;97562.78;;;6.83;91.89
20987;BME280;10652;50.306;8.570;2023-12-29T06:00:37;97558.16;;;6.90;91.52
20987;BME280;10652;50.306;8.570;2023-12-29T06:04:40;97576.25;;;6.95;90.84
20987;BME280;10652;50.306;8.570;2023-12-29T06:08:42;97582.22;;;6.98;90.88
20987;BME280;10652;50.306;8.570;2023-12-29T06:12:44;97575.03;;;7.03;90.21
20987;BME280;10652;50.306;8.570;2023-12-29T06:16:47;97591.28;;;7.10;90.47
20987;BME280;10652;50.306;8.570;2023-12-29T06:20:49;97583.34;;;7.13;90.52
20987;BME280;10652;50.306;8.570;2023-12-29T06:24:51;97588.38;;;7.17;90.26
20987;BME280;10652;50.306;8.570;2023-12-29T06:28:53;97582.22;;;7.18;90.23
20987;BME280;10652;50.306;8.570;2023-12-29T06:32:55;97570.94;;;7.18;90.19
20987;BME280;10652;50.306;8.570;2023-12-29T06:36:58;97575.25;;;7.19;90.20
20987;BME280;10652;50.306;8.570;2023-12-29T06:41:02;97560.66;;;7.13;89.87
20987;BME280;10652;50.306;8.570;2023-12-29T06:45:05;97551.72;;;6.99;89.79
20987;BME280;10652;50.306;8.570;2023-12-29T06:49:10;97542.75;;;6.84;90.38
20987;BME280;10652;50.306;8.570;2023-12-29T06:53:12;97551.00;;;6.73;91.36
20987;BME280;10652;50.306;8.570;2023-12-29T06:57:14;97546.81;;;6.69;92.44
20987;BME280;10652;50.306;8.570;2023-12-29T07:01:18;97551.97;;;6.71;93.13
20987;BME280;10652;50.306;8.570;2023-12-29T07:05:20;97556.03;;;6.78;93.25
20987;BME280;10652;50.306;8.570;2023-12-29T07:09:23;97562.72;;;6.85;93.27
20987;BME280;10652;50.306;8.570;2023-12-29T07:13:25;97574.56;;;6.93;93.31
20987;BME280;10652;50.306;8.570;2023-12-29T07:17:27;97576.84;;;7.01;93.34
20987;BME280;10652;50.306;8.570;2023-12-29T07:21:29;97572.25;;;7.08;93.05
20987;BME280;10652;50.306;8.570;2023-12-29T07:25:31;97576.34;;;7.13;93.09
20987;BME280;10652;50.306;8.570;2023-12-29T07:29:33;97576.16;;;7.18;92.90
20987;BME280;10652;50.306;8.570;2023-12-29T07:33:35;97577.75;;;7.22;92.69
20987;BME280;10652;50.306;8.570;2023-12-29T07:37:38;97580.22;;;7.25;92.91
20987;BME280;10652;50.306;8.570;2023-12-29T07:41:41;97578.34;;;7.28;92.91
20987;BME280;10652;50.306;8.570;2023-12-29T07:45:46;97592.00;;;7.35;92.89
20987;BME280;10652;50.306;8.570;2023-12-29T07:49:48;97597.03;;;7.40;92.71
20987;BME280;10652;50.306;8.570;2023-12-29T07:53:50;97591.50;;;7.47;92.61
20987;BME280;10652;50.306;8.570;2023-12-29T07:57:52;97587.97;;;7.48;92.46
20987;BME280;10652;50.306;8.570;2023-12-29T08:01:55;97586.00;;;7.53;92.76
20987;BME280;10652;50.306;8.570;2023-12-29T08:05:59;97592.81;;;7.57;92.48
20987;BME280;10652;50.306;8.570;2023-12-29T08:10:01;97593.38;;;7.64;92.79
20987;BME280;10652;50.306;8.570;2023-12-29T08:14:03;97597.50;;;7.69;92.65
20987;BME280;10652;50.306;8.570;2023-12-29T08:18:05;97597.38;;;7.72;92.42
20987;BME280;10652;50.306;8.570;2023-12-29T08:22:08;97588.50;;;7.76;92.56
20987;BME280;10652;50.306;8.570;2023-12-29T08:26:10;97583.13;;;7.79;92.09
20987;BME280;10652;50.306;8.570;2023-12-29T08:30:12;97598.66;;;7.82;91.93
20987;BME280;10652;50.306;8.570;2023-12-29T08:34:15;97581.16;;;7.85;91.89
20987;BME280;10652;50.306;8.570;2023-12-29T08:38:17;97587.81;;;7.92;91.95
20987;BME280;10652;50.306;8.570;2023-12-29T08:42:19;97584.78;;;8.01;93.76
20987;BME280;10652;50.306;8.570;2023-12-29T08:46:21;97568.16;;;9.14;100.00
20987;BME280;10652;50.306;8.570;2023-12-29T08:50:24;97568.38;;;9.80;89.17
20987;BME280;10652;50.306;8.570;2023-12-29T08:54:27;97568.09;;;9.33;83.06
20987;BME280;10652;50.306;8.570;2023-12-29T08:58:29;97576.44;;;8.88;83.17
20987;BME280;10652;50.306;8.570;2023-12-29T09:02:32;97577.75;;;8.60;84.59
20987;BME280;10652;50.306;8.570;2023-12-29T09:06:34;97574.97;;;8.45;86.02
20987;BME280;10652;50.306;8.570;2023-12-29T09:10:36;97572.06;;;8.32;86.58
20987;BME280;10652;50.306;8.570;2023-12-29T09:14:38;97579.28;;;8.27;87.69
20987;BME280;10652;50.306;8.570;2023-12-29T09:18:41;97563.03;;;8.20;87.97
20987;BME280;10652;50.306;8.570;2023-12-29T09:22:43;97569.09;;;8.21;88.92
20987;BME280;10652;50.306;8.570;2023-12-29T09:26:46;97572.47;;;8.23;88.94
20987;BME280;10652;50.306;8.570;2023-12-29T09:30:48;97560.25;;;8.23;88.40
20987;BME280;10652;50.306;8.570;2023-12-29T09:34:50;97567.13;;;8.26;88.59
20987;BME280;10652;50.306;8.570;2023-12-29T09:38:53;97564.44;;;8.27;87.84
20987;BME280;10652;50.306;8.570;2023-12-29T09:42:55;97571.31;;;8.30;87.58
20987;BME280;10652;50.306;8.570;2023-12-29T09:47:01;97572.66;;;8.39;87.38
20987;BME280;10652;50.306;8.570;2023-12-29T09:51:05;97568.06;;;8.44;87.16
20987;BME280;10652;50.306;8.570;2023-12-29T09:55:10;97570.31;;;8.51;86.89
20987;BME280;10652;50.306;8.570;2023-12-29T09:59:13;97579.06;;;8.50;86.99
20987;BME280;10652;50.306;8.570;2023-12-29T10:03:16;97580.00;;;8.49;87.01
20987;BME280;10652;50.306;8.570;2023-12-29T10:07:25;97569.41;;;8.52;87.53
20987;BME280;10652;50.306;8.570;2023-12-29T10:11:28;97574.47;;;8.55;87.15
20987;BME280;10652;50.306;8.570;2023-12-29T10:15:47;97569.03;;;8.60;86.67
20987;BME280;10652;50.306;8.570;2023-12-29T10:20:08;97578.66;;;8.59;87.28
20987;BME280;10652;50.306;8.570;2023-12-29T10:24:19;97581.28;;;8.59;87.43
20987;BME280;10652;50.306;8.570;2023-12-29T10:28:22;97572.56;;;8.59;87.48
20987;BME280;10652;50.306;8.570;2023-12-29T10:32:24;97581.41;;;8.56;88.00
20987;BME280;10652;50.306;8.570;2023-12-29T10:36:46;97587.28;;;8.61;87.88
20987;BME280;10652;50.306;8.570;2023-12-29T10:40:49;97572.56;;;8.59;87.89
20987;BME280;10652;50.306;8.570;2023-12-29T10:45:08;97558.63;;;8.58;88.01
20987;BME280;10652;50.306;8.570;2023-12-29T10:49:12;97576.03;;;8.59;88.23
20987;BME280;10652;50.306;8.570;2023-12-29T10:53:15;97575.13;;;8.60;88.55
20987;BME280;10652;50.306;8.570;2023-12-29T10:57:20;97574.06;;;8.64;88.67
20987;BME280;10652;50.306;8.570;2023-12-29T11:01:22;97572.22;;;8.66;88.97
20987;BME280;10652;50.306;8.570;2023-12-29T11:05:25;97587.94;;;8.66;89.09
20987;BME280;10652;50.306;8.570;2023-12-29T11:09:32;97549.13;;;8.75;89.55
20987;BME280;10652;50.306;8.570;2023-12-29T11:13:36;97546.31;;;8.79;89.29
20987;BME280;10652;50.306;8.570;2023-12-29T11:17:41;97549.38;;;8.87;89.24
20987;BME280;10652;50.306;8.570;2023-12-29T11:21:52;97539.16;;;9.00;89.18
20987;BME280;10652;50.306;8.570;2023-12-29T11:25:57;97541.03;;;8.98;88.02
20987;BME280;10652;50.306;8.570;2023-12-29T11:30:02;97534.38;;;8.91;87.84
20987;BME280;10652;50.306;8.570;2023-12-29T11:34:10;97536.69;;;8.97;87.57
20987;BME280;10652;50.306;8.570;2023-12-29T11:38:44;97545.66;;;9.10;87.29
20987;BME280;10652;50.306;8.570;2023-12-29T11:42:52;97545.75;;;9.26;86.46
20987;BME280;10652;50.306;8.570;2023-12-29T11:46:56;97540.13;;;9.33;86.45
20987;BME280;10652;50.306;8.570;2023-12-29T11:51:37;97526.84;;;9.36;85.97
20987;BME280;10652;50.306;8.570;2023-12-29T11:55:40;97526.72;;;9.39;85.22
20987;BME280;10652;50.306;8.570;2023-12-29T11:59:48;97525.19;;;9.35;84.66
20987;BME280;10652;50.306;8.570;2023-12-29T12:03:50;97519.56;;;9.26;83.37
20987;BME280;10652;50.306;8.570;2023-12-29T12:07:57;97519.63;;;9.24;83.87
20987;BME280;10652;50.306;8.570;2023-12-29T12:11:59;97505.66;;;9.24;83.66
20987;BME280;10652;50.306;8.570;2023-12-29T12:16:01;97507.38;;;9.25;84.30
20987;BME280;10652;50.306;8.570;2023-12-29T12:20:08;97506.97;;;9.15;84.87
20987;BME280;10652;50.306;8.570;2023-12-29T12:24:11;97515.84;;;9.12;84.77
20987;BME280;10652;50.306;8.570;2023-12-29T12:28:14;97518.31;;;9.15;84.35
20987;BME280;10652;50.306;8.570;2023-12-29T12:32:16;97511.31;;;9.16;84.23
20987;BME280;10652;50.306;8.570;2023-12-29T12:36:19;97520.69;;;9.20;84.92
20987;BME280;10652;50.306;8.570;2023-12-29T12:40:25;97523.94;;;9.25;84.36
20987;BME280;10652;50.306;8.570;2023-12-29T12:44:29;97513.81;;;9.18;84.23
20987;BME280;10652;50.306;8.570;2023-12-29T12:48:41;97511.31;;;9.16;84.68
20987;BME280;10652;50.306;8.570;2023-12-29T12:52:45;97504.59;;;9.10;84.98
20987;BME280;10652;50.306;8.570;2023-12-29T12:56:48;97502.88;;;9.09;85.07
20987;BME280;10652;50.306;8.570;2023-12-29T13:00:51;97504.41;;;9.13;85.26
20987;BME280;10652;50.306;8.570;2023-12-29T13:04:57;97506.81;;;9.18;85.15
20987;BME280;10652;50.306;8.570;2023-12-29T13:09:00;97506.69;;;9.21;84.40
20987;BME280;10652;50.306;8.570;2023-12-29T13:13:04;97497.88;;;9.22;84.20
20987;BME280;10652;50.306;8.570;2023-12-29T13:17:11;97501.28;;;9.24;84.17
20987;BME280;10652;50.306;8.570;2023-12-29T13:21:17;97504.81;;;9.23;83.40
20987;BME280;10652;50.306;8.570;2023-12-29T13:25:20;97502.28;;;9.22;83.83
20987;BME280;10652;50.306;8.570;2023-12-29T13:29:24;97492.63;;;9.22;83.34
20987;BME280;10652;50.306;8.570;2023-12-29T13:37:54;97487.56;;;9.19;83.39
20987;BME280;10652;50.306;8.570;2023-12-29T13:42:03;97487.56;;;9.19;83.42
20987;BME280;10652;50.306;8.570;2023-12-29T13:46:06;97492.84;;;9.18;83.28
20987;BME280;10652;50.306;8.570;2023-12-29T13:50:09;97494.88;;;9.12;83.99
20987;BME280;10652;50.306;8.570;2023-12-29T13:54:12;97498.50;;;9.10;84.46
20987;BME280;10652;50.306;8.570;2023-12-29T13:58:16;97485.63;;;9.05;85.19
20987;BME280;10652;50.306;8.570;2023-12-29T14:02:27;97489.31;;;9.01;85.35
20987;BME280;10652;50.306;8.570;2023-12-29T14:06:38;97477.38;;;8.96;86.33
20987;BME280;10652;50.306;8.570;2023-12-29T14:10:42;97478.16;;;8.98;86.62
20987;BME280;10652;50.306;8.570;2023-12-29T14:14:44;97480.00;;;8.96;86.97
20987;BME280;10652;50.306;8.570;2023-12-29T14:18:54;97486.16;;;8.95;87.29
20987;BME280;10652;50.306;8.570;2023-12-29T14:23:04;97487.22;;;8.91;86.70
20987;BME280;10652;50.306;8.570;2023-12-29T14:27:07;97493.47;;;8.88;87.11
20987;BME280;10652;50.306;8.570;2023-12-29T14:31:10;97486.59;;;8.86;87.36
20987;BME280;10652;50.306;8.570;2023-12-29T14:35:12;97491.06;;;8.84;87.57
20987;BME280;10652;50.306;8.570;2023-12-29T14:39:14;97493.75;;;8.82;87.43
20987;BME280;10652;50.306;8.570;2023-12-29T14:43:19;97502.63;;;8.80;87.95
20987;BME280;10652;50.306;8.570;2023-12-29T14:47:22;97510.50;;;8.80;88.07
20987;BME280;10652;50.306;8.570;2023-12-29T14:51:24;97501.09;;;8.76;88.10
20987;BME280;10652;50.306;8.570;2023-12-29T14:55:26;97501.38;;;8.69;88.57
20987;BME280;10652;50.306;8.570;2023-12-29T14:59:28;97498.91;;;8.66;88.98
20987;BME280;10652;50.306;8.570;2023-12-29T15:03:33;97490.50;;;8.60;89.13
20987;BME280;10652;50.306;8.570;2023-12-29T15:07:35;97487.34;;;8.53;89.34
20987;BME280;10652;50.306;8.570;2023-12-29T15:11:37;97487.56;;;8.49;89.56
20987;BME280;10652;50.306;8.570;2023-12-29T15:15:40;97487.78;;;8.44;89.73
20987;BME280;10652;50.306;8.570;2023-12-29T15:19:42;97472.50;;;8.35;90.32
20987;BME280;10652;50.306;8.570;2023-12-29T15:23:44;97485.03;;;8.64;99.12
20987;BME280;10652;50.306;8.570;2023-12-29T15:27:47;97474.69;;;9.65;100.00
20987;BME280;10652;50.306;8.570;2023-12-29T15:31:49;97471.34;;;9.28;86.43
20987;BME280;10652;50.306;8.570;2023-12-29T15:35:52;97478.28;;;8.95;86.33
20987;BME280;10652;50.306;8.570;2023-12-29T15:39:54;97473.94;;;8.77;88.04
20987;BME280;10652;50.306;8.570;2023-12-29T15:43:56;97480.81;;;8.62;89.47
20987;BME280;10652;50.306;8.570;2023-12-29T15:47:58;97468.22;;;8.51;90.37
20987;BME280;10652;50.306;8.570;2023-12-29T15:52:01;97455.63;;;8.41;91.59
20987;BME280;10652;50.306;8.570;2023-12-29T15:56:04;97443.94;;;8.31;92.88
20987;BME280;10652;50.306;8.570;2023-12-29T16:00:07;97442.03;;;8.15;94.24
20987;BME280;10652;50.306;8.570;2023-12-29T16:04:12;97431.19;;;8.04;95.21
20987;BME280;10652;50.306;8.570;2023-12-29T16:08:14;97429.84;;;7.96;96.12
20987;BME280;10652;50.306;8.570;2023-12-29T16:12:16;97430.34;;;7.85;96.66
20987;BME280;10652;50.306;8.570;2023-12-29T16:16:19;97428.06;;;7.77;97.26
20987;BME280;10652;50.306;8.570;2023-12-29T16:20:22;97425.13;;;8.22;100.00
20987;BME280;10652;50.306;8.570;2023-12-29T16:24:24;97432.13;;;8.58;99.35
20987;BME280;10652;50.306;8.570;2023-12-29T16:28:26;97431.47;;;8.36;95.29
20987;BME280;10652;50.306;8.570;2023-12-29T16:32:28;97429.66;;;8.19;94.86
20987;BME280;10652;50.306;8.570;2023-12-29T16:36:35;97438.81;;;8.09;95.65
20987;BME280;10652;50.306;8.570;2023-12-29T16:40:43;97429.72;;;7.99;96.43
20987;BME280;10652;50.306;8.570;2023-12-29T16:44:47;97422.16;;;7.93;97.68
20987;BME280;10652;50.306;8.570;2023-12-29T16:48:49;97422.22;;;7.91;97.81
20987;BME280;10652;50.306;8.570;2023-12-29T16:52:52;97429.34;;;7.88;98.09
20987;BME280;10652;50.306;8.570;2023-12-29T16:56:54;97421.72;;;7.83;98.29
20987;BME280;10652;50.306;8.570;2023-12-29T17:00:56;97416.84;;;7.75;98.82
20987;BME280;10652;50.306;8.570;2023-12-29T17:04:58;97421.44;;;7.70;99.18
20987;BME280;10652;50.306;8.570;2023-12-29T17:09:00;97420.75;;;7.67;99.86
20987;BME280;10652;50.306;8.570;2023-12-29T17:13:03;97435.47;;;7.68;100.00
20987;BME280;10652;50.306;8.570;2023-12-29T17:17:05;97431.91;;;7.70;100.00
20987;BME280;10652;50.306;8.570;2023-12-29T17:21:07;97439.47;;;7.76;100.00
20987;BME280;10652;50.306;8.570;2023-12-29T17:25:10;97422.09;;;7.75;100.00
20987;BME280;10652;50.306;8.570;2023-12-29T17:29:12;97421.94;;;7.78;100.00
20987;BME280;10652;50.306;8.570;2023-12-29T17:33:14;97425.59;;;7.74;100.00
20987;BME280;10652;50.306;8.570;2023-12-29T17:37:18;97438.63;;;7.76;100.00
20987;BME280;10652;50.306;8.570;2023-12-29T17:41:20;97440.38;;;7.75;100.00
20987;BME280;10652;50.306;8.570;2023-12-29T17:45:22;97440.50;;;7.72;100.00
20987;BME280;10652;50.306;8.570;2023-12-29T17:49:24;97428.50;;;7.68;100.00
20987;BME280;10652;50.306;8.570;2023-12-29T17:53:29;97430.47;;;7.63;100.00
20987;BME280;10652;50.306;8.570;2023-12-29T17:57:32;97442.91;;;7.58;100.00
20987;BME280;10652;50.306;8.570;2023-12-29T18:01:34;97431.94;;;7.50;100.00
20987;BME280;10652;50.306;8.570;2023-12-29T18:05:36;97429.47;;;7.47;100.00
20987;BME280;10652;50.306;8.570;2023-12-29T18:09:39;97420.13;;;7.42;100.00
20987;BME280;10652;50.306;8.570;2023-12-29T18:13:41;97441.88;;;7.42;100.00
20987;BME280;10652;50.306;8.570;2023-12-29T18:17:44;97453.84;;;7.48;100.00
20987;BME280;10652;50.306;8.570;2023-12-29T18:21:46;97469.47;;;7.49;100.00
20987;BME280;10652;50.306;8.570;2023-12-29T18:25:48;97474.41;;;7.55;100.00
20987;BME280;10652;50.306;8.570;2023-12-29T18:29:51;97463.53;;;7.64;100.00
20987;BME280;10652;50.306;8.570;2023-12-29T18:33:53;97466.03;;;7.67;100.00
20987;BME280;10652;50.306;8.570;2023-12-29T18:37:55;97462.38;;;7.71;100.00
20987;BME280;10652;50.306;8.570;2023-12-29T18:41:57;97439.81;;;7.69;100.00
20987;BME280;10652;50.306;8.570;2023-12-29T18:46:07;97450.63;;;7.61;100.00
20987;BME280;10652;50.306;8.570;2023-12-29T18:50:11;97443.44;;;7.46;100.00
20987;BME280;10652;50.306;8.570;2023-12-29T18:54:14;97449.06;;;7.37;100.00
20987;BME280;10652;50.306;8.570;2023-12-29T18:58:16;97449.34;;;7.31;100.00
20987;BME280;10652;50.306;8.570;2023-12-29T19:02:18;97454.31;;;7.37;100.00
20987;BME280;10652;50.306;8.570;2023-12-29T19:06:24;97454.81;;;7.45;100.00
20987;BME280;10652;50.306;8.570;2023-12-29T19:10:29;97457.31;;;7.48;100.00
20987;BME280;10652;50.306;8.570;2023-12-29T19:14:36;97464.75;;;7.57;100.00
20987;BME280;10652;50.306;8.570;2023-12-29T19:18:38;97456.91;;;7.57;100.00
20987;BME280;10652;50.306;8.570;2023-12-29T19:22:40;97455.34;;;7.53;100.00
20987;BME280;10652;50.306;8.570;2023-12-29T19:26:45;97450.22;;;7.50;100.00
20987;BME280;10652;50.306;8.570;2023-12-29T19:30:47;97445.16;;;7.47;100.00
20987;BME280;10652;50.306;8.570;2023-12-29T19:34:49;97464.50;;;7.43;100.00
20987;BME280;10652;50.306;8.570;2023-12-29T19:38:52;97457.34;;;7.47;100.00
20987;BME280;10652;50.306;8.570;2023-12-29T19:42:54;97455.44;;;7.50;100.00
20987;BME280;10652;50.306;8.570;2023-12-29T19:46:56;97457.16;;;7.51;100.00
20987;BME280;10652;50.306;8.570;2023-12-29T19:50:58;97463.59;;;7.44;100.00
20987;BME280;10652;50.306;8.570;2023-12-29T19:55:01;97460.78;;;7.28;100.00
20987;BME280;10652;50.306;8.570;2023-12-29T19:59:03;97469.91;;;7.18;100.00
20987;BME280;10652;50.306;8.570;2023-12-29T20:03:05;97469.34;;;7.12;100.00
20987;BME280;10652;50.306;8.570;2023-12-29T20:07:08;97469.59;;;7.06;100.00
20987;BME280;10652;50.306;8.570;2023-12-29T20:11:10;97449.75;;;7.02;100.00
20987;BME280;10652;50.306;8.570;2023-12-29T20:15:12;97443.63;;;7.03;100.00
20987;BME280;10652;50.306;8.570;2023-12-29T20:19:16;97440.91;;;7.04;100.00
20987;BME280;10652;50.306;8.570;2023-12-29T20:23:18;97446.28;;;7.01;100.00
20987;BME280;10652;50.306;8.570;2023-12-29T20:27:20;97449.81;;;7.00;100.00
20987;BME280;10652;50.306;8.570;2023-12-29T20:31:24;97459.84;;;7.09;100.00
20987;BME280;10652;50.306;8.570;2023-12-29T20:35:26;97456.34;;;7.10;100.00
20987;BME280;10652;50.306;8.570;2023-12-29T20:39:28;97441.38;;;7.14;100.00
20987;BME280;10652;50.306;8.570;2023-12-29T20:43:31;97441.13;;;7.20;100.00
20987;BME280;10652;50.306;8.570;2023-12-29T20:47:33;97432.38;;;7.21;100.00
20987;BME280;10652;50.306;8.570;2023-12-29T20:51:38;97456.34;;;7.30;100.00
20987;BME280;10652;50.306;8.570;2023-12-29T20:55:40;97464.75;;;7.37;100.00
20987;BME280;10652;50.306;8.570;2023-12-29T20:59:42;97448.97;;;7.40;100.00
20987;BME280;10652;50.306;8.570;2023-12-29T21:03:44;97451.69;;;7.37;100.00
20987;BME280;10652;50.306;8.570;2023-12-29T21:07:47;97450.78;;;7.38;100.00
20987;BME280;10652;50.306;8.570;2023-12-29T21:11:49;97434.25;;;7.37;100.00
20987;BME280;10652;50.306;8.570;2023-12-29T21:15:51;97444.84;;;7.34;100.00
20987;BME280;10652;50.306;8.570;2023-12-29T21:19:53;97440.59;;;7.32;100.00
20987;BME280;10652;50.306;8.570;2023-12-29T21:23:55;97456.41;;;7.29;100.00
20987;BME280;10652;50.306;8.570;2023-12-29T21:27:58;97451.03;;;7.32;100.00
20987;BME280;10652;50.306;8.570;2023-12-29T21:32:00;97445.69;;;7.35;100.00
20987;BME280;10652;50.306;8.570;2023-12-29T21:36:02;97440.47;;;7.35;100.00
20987;BME280;10652;50.306;8.570;2023-12-29T21:40:07;97447.47;;;7.34;100.00
20987;BME280;10652;50.306;8.570;2023-12-29T21:44:09;97442.88;;;7.40;100.00
20987;BME280;10652;50.306;8.570;2023-12-29T21:48:16;97465.19;;;7.47;100.00